createdAt,value
2019-06-27T00:01:04.699Z,11.57
2019-06-27T00:03:33.808Z,22.40
2019-06-27T00:06:02.907Z,19.50
2019-06-27T00:08:32.181Z,14.00
2019-06-27T00:11:01.501Z,11.93
2019-06-27T00:13:30.555Z,10.73
2019-06-27T00:15:59.627Z,17.40
2019-06-27T00:18:28.626Z,9.70
2019-06-27T00:21:00.703Z,15.63
2019-06-27T00:23:29.763Z,11.80
2019-06-27T00:25:58.939Z,10.27
2019-06-27T00:28:27.999Z,18.87
2019-06-27T00:30:57.410Z,16.40
2019-06-27T00:33:26.523Z,13.07
2019-06-27T00:35:55.596Z,13.53
2019-06-27T00:38:30.874Z,13.67
2019-06-27T00:41:00.050Z,15.83
2019-06-27T00:43:29.120Z,12.90
2019-06-27T00:45:58.143Z,8.63
2019-06-27T00:48:27.340Z,16.30
2019-06-27T00:50:56.639Z,16.33
2019-06-27T00:53:25.713Z,20.80
2019-06-27T00:55:54.833Z,14.70
2019-06-27T00:58:24.127Z,12.23
2019-06-27T01:00:53.523Z,11.73
2019-06-27T01:03:22.840Z,9.60
2019-06-27T01:05:51.892Z,13.00
2019-06-27T01:08:20.942Z,15.07
2019-06-27T01:10:50.040Z,15.33
2019-06-27T01:13:19.211Z,15.30
2019-06-27T01:15:48.339Z,25.07
2019-06-27T01:18:17.436Z,14.33
2019-06-27T01:20:46.584Z,17.03
2019-06-27T01:23:15.600Z,12.90
2019-06-27T01:25:45.047Z,17.07
2019-06-27T01:28:14.095Z,29.47
2019-06-27T01:30:43.265Z,15.47
2019-06-27T01:33:12.320Z,18.03
2019-06-27T01:35:41.397Z,11.97
2019-06-27T01:38:10.728Z,14.77
2019-06-27T01:40:39.794Z,8.03
2019-06-27T01:43:08.756Z,17.20
2019-06-27T01:45:43.674Z,15.83
2019-06-27T01:48:12.706Z,12.63
2019-06-27T01:50:41.729Z,14.90
2019-06-27T01:53:10.808Z,11.40
2019-06-27T01:55:39.848Z,11.43
2019-06-27T01:58:08.912Z,25.10
2019-06-27T02:00:38.017Z,11.67
2019-06-27T02:03:07.261Z,13.97
2019-06-27T02:05:36.760Z,17.00
2019-06-27T02:08:05.872Z,12.23
2019-06-27T02:10:34.933Z,17.97
2019-06-27T02:13:04.003Z,8.13
2019-06-27T02:15:33.077Z,15.43
2019-06-27T02:18:02.684Z,9.20
2019-06-27T02:20:31.778Z,11.37
2019-06-27T02:23:00.859Z,13.70
2019-06-27T02:25:29.984Z,24.43
2019-06-27T02:28:04.206Z,24.80
2019-06-27T02:30:38.413Z,16.73
2019-06-27T02:33:07.512Z,16.73
2019-06-27T02:35:36.612Z,18.87
2019-06-27T02:38:05.941Z,12.10
2019-06-27T02:40:35.293Z,8.40
2019-06-27T02:43:04.691Z,15.57
2019-06-27T02:45:34.042Z,13.57
2019-06-27T02:48:03.156Z,15.80
2019-06-27T02:50:32.315Z,20.53
2019-06-27T02:53:01.397Z,17.17
2019-06-27T02:55:30.687Z,16.50
2019-06-27T02:58:00.080Z,10.37
2019-06-27T03:00:29.979Z,13.83
2019-06-27T03:02:59.129Z,16.43
2019-06-27T03:05:28.208Z,19.63
2019-06-27T03:07:57.294Z,11.00
2019-06-27T03:10:26.333Z,13.13
2019-06-27T03:12:55.436Z,17.27
2019-06-27T03:15:24.777Z,20.53
2019-06-27T03:17:54.058Z,8.53
2019-06-27T03:20:23.166Z,18.37
2019-06-27T03:22:52.656Z,10.90
2019-06-27T03:25:21.838Z,14.00
2019-06-27T03:27:51.201Z,15.93
2019-06-27T03:30:20.307Z,16.27
2019-06-27T03:32:49.745Z,11.13
2019-06-27T03:35:19.013Z,12.57
2019-06-27T03:37:48.224Z,14.80
2019-06-27T03:40:17.452Z,15.60
2019-06-27T03:42:46.560Z,22.20
2019-06-27T03:45:16.425Z,18.83
2019-06-27T03:47:45.812Z,10.67
2019-06-27T03:50:14.873Z,13.83
2019-06-27T03:52:43.969Z,21.60
2019-06-27T03:55:13.621Z,16.27
2019-06-27T03:57:45.048Z,16.97
2019-06-27T04:00:18.099Z,9.57
2019-06-27T04:02:47.498Z,19.47
2019-06-27T04:05:17.003Z,21.93
2019-06-27T04:07:46.617Z,18.13
2019-06-27T04:10:17.601Z,11.97
2019-06-27T04:12:46.657Z,10.30
2019-06-27T04:15:15.748Z,15.20
2019-06-27T04:17:44.840Z,17.13
2019-06-27T04:20:14.644Z,10.63
2019-06-27T04:22:43.704Z,15.80
2019-06-27T04:25:13.279Z,22.13
2019-06-27T04:27:42.420Z,17.27
2019-06-27T04:30:11.786Z,11.47
2019-06-27T04:32:40.886Z,21.60
2019-06-27T04:35:10.094Z,13.00
2019-06-27T04:37:39.163Z,22.80
2019-06-27T04:40:08.360Z,15.37
2019-06-27T04:42:37.478Z,12.47
2019-06-27T04:45:07.105Z,21.50
2019-06-27T04:47:36.457Z,15.13
2019-06-27T04:50:05.763Z,13.07
2019-06-27T04:52:34.868Z,14.63
2019-06-27T04:55:04.425Z,20.33
2019-06-27T04:57:34.185Z,20.07
2019-06-27T05:00:03.306Z,21.17
2019-06-27T05:02:33.243Z,17.33
2019-06-27T05:05:02.627Z,15.97
2019-06-27T05:07:31.710Z,23.90
2019-06-27T05:10:00.783Z,16.90
2019-06-27T05:12:29.841Z,28.43
2019-06-27T05:14:58.937Z,20.60
2019-06-27T05:17:28.091Z,23.93
2019-06-27T05:19:57.172Z,17.03
2019-06-27T05:22:26.311Z,19.00
2019-06-27T05:24:55.742Z,26.60
2019-06-27T05:27:24.941Z,28.00
2019-06-27T05:30:08.131Z,23.00
2019-06-27T05:32:24.668Z,21.77
2019-06-27T05:34:53.796Z,21.10
2019-06-27T05:37:23.262Z,19.23
2019-06-27T05:39:52.364Z,28.13
2019-06-27T05:42:21.820Z,21.57
2019-06-27T05:44:51.295Z,19.67
2019-06-27T05:47:20.691Z,20.70
2019-06-27T05:49:49.695Z,22.47
2019-06-27T05:52:18.854Z,25.77
2019-06-27T05:54:48.019Z,34.60
2019-06-27T05:57:17.180Z,23.87
2019-06-27T05:59:46.435Z,24.53
2019-06-27T06:02:15.583Z,31.60
2019-06-27T06:04:44.655Z,21.70
2019-06-27T06:07:13.695Z,23.20
2019-06-27T06:09:42.898Z,25.53
2019-06-27T06:12:12.417Z,23.97
2019-06-27T06:14:41.597Z,32.37
2019-06-27T06:17:10.669Z,31.57
2019-06-27T06:19:40.048Z,32.80
2019-06-27T06:22:09.166Z,34.13
2019-06-27T06:24:38.198Z,23.03
2019-06-27T06:27:07.285Z,21.90
2019-06-27T06:29:36.374Z,25.93
2019-06-27T06:32:05.690Z,26.70
2019-06-27T06:34:34.790Z,26.73
2019-06-27T06:37:07.774Z,21.47
2019-06-27T06:39:34.934Z,18.60
2019-06-27T06:42:04.353Z,24.90
2019-06-27T06:44:33.750Z,20.67
2019-06-27T06:47:03.041Z,13.10
2019-06-27T06:49:32.254Z,19.43
2019-06-27T06:52:01.354Z,25.00
2019-06-27T06:54:30.751Z,18.60
2019-06-27T06:57:00.753Z,18.93
2019-06-27T06:59:29.954Z,19.50
2019-06-27T07:01:59.174Z,15.97
2019-06-27T07:04:29.111Z,17.80
2019-06-27T07:06:58.385Z,17.57
2019-06-27T07:09:27.595Z,17.50
2019-06-27T07:11:56.634Z,15.00
2019-06-27T07:14:27.172Z,10.90
2019-06-27T07:16:56.693Z,11.90
2019-06-27T07:19:26.099Z,10.57
2019-06-27T07:21:55.301Z,14.40
2019-06-27T07:24:24.458Z,10.90
2019-06-27T07:26:53.629Z,20.83
2019-06-27T07:29:22.680Z,10.30
2019-06-27T07:31:51.867Z,13.00
2019-06-27T07:34:20.967Z,12.27
2019-06-27T07:36:50.022Z,10.30
2019-06-27T07:39:19.796Z,20.13
2019-06-27T07:41:49.036Z,6.80
2019-06-27T07:44:20.386Z,17.40
2019-06-27T07:46:49.147Z,10.80
2019-06-27T07:49:18.369Z,10.77
2019-06-27T07:51:47.551Z,11.43
2019-06-27T07:54:16.709Z,11.90
2019-06-27T07:56:46.414Z,15.23
2019-06-27T07:59:15.781Z,8.27
2019-06-27T08:01:44.867Z,8.17
2019-06-27T08:04:14.322Z,11.03
2019-06-27T08:06:43.388Z,9.37
2019-06-27T08:09:12.551Z,7.80
2019-06-27T08:11:41.637Z,9.63
2019-06-27T08:14:10.767Z,15.43
2019-06-27T08:16:40.121Z,10.40
2019-06-27T08:19:09.291Z,11.43
2019-06-27T08:21:38.481Z,6.13
2019-06-27T08:24:07.700Z,9.57
2019-06-27T08:26:36.775Z,8.10
2019-06-27T08:29:06.142Z,6.90
2019-06-27T08:31:50.451Z,10.40
2019-06-27T08:34:06.082Z,5.97
2019-06-27T08:36:35.143Z,8.17
2019-06-27T08:39:05.441Z,7.97
2019-06-27T08:41:34.760Z,21.80
2019-06-27T08:44:03.871Z,11.93
2019-06-27T08:46:32.992Z,13.67
2019-06-27T08:49:02.071Z,10.30
2019-06-27T08:51:31.368Z,12.53
2019-06-27T08:54:00.488Z,15.63
2019-06-27T08:56:29.542Z,5.63
2019-06-27T08:58:58.653Z,12.53
2019-06-27T09:01:27.740Z,20.77
2019-06-27T09:03:56.783Z,13.17
2019-06-27T09:06:25.955Z,17.83
2019-06-27T09:08:55.063Z,10.90
2019-06-27T09:11:24.103Z,13.90
2019-06-27T09:13:53.328Z,13.47
2019-06-27T09:16:22.445Z,15.37
2019-06-27T09:18:51.565Z,7.87
2019-06-27T09:21:20.619Z,10.03
2019-06-27T09:23:49.707Z,6.00
2019-06-27T09:26:19.225Z,12.30
2019-06-27T09:28:48.319Z,11.40
2019-06-27T09:31:17.474Z,6.87
2019-06-27T09:33:46.654Z,6.67
2019-06-27T09:36:15.823Z,6.90
2019-06-27T09:38:45.157Z,11.53
2019-06-27T09:41:14.589Z,9.30
2019-06-27T09:43:43.727Z,5.90
2019-06-27T09:46:12.856Z,6.40
2019-06-27T09:48:41.951Z,8.60
2019-06-27T09:51:11.113Z,6.33
2019-06-27T09:53:40.167Z,3.90
2019-06-27T09:56:09.367Z,11.00
2019-06-27T09:58:38.495Z,7.10
2019-06-27T10:01:07.668Z,9.27
2019-06-27T10:03:36.771Z,3.50
2019-06-27T10:06:05.871Z,4.90
2019-06-27T10:08:35.373Z,5.07
2019-06-27T10:11:04.493Z,5.00
2019-06-27T10:13:33.621Z,6.30
2019-06-27T10:16:02.677Z,3.57
2019-06-27T10:18:31.815Z,5.20
2019-06-27T10:21:01.081Z,7.63
2019-06-27T10:23:30.269Z,15.40
2019-06-27T10:25:59.444Z,8.60
2019-06-27T10:28:28.570Z,9.20
2019-06-27T10:30:57.723Z,11.23
2019-06-27T10:33:26.786Z,4.93
2019-06-27T10:35:55.943Z,9.80
2019-06-27T10:38:25.067Z,4.60
2019-06-27T10:40:54.117Z,5.33
2019-06-27T10:43:23.488Z,5.30
2019-06-27T10:45:52.595Z,7.57
2019-06-27T10:48:22.835Z,5.70
2019-06-27T10:50:54.621Z,4.73
2019-06-27T10:53:22.898Z,9.87
2019-06-27T10:55:51.971Z,9.37
2019-06-27T10:58:21.172Z,8.97
2019-06-27T11:00:50.300Z,14.83
2019-06-27T11:03:19.641Z,13.63
2019-06-27T11:05:48.784Z,9.70
2019-06-27T11:08:17.900Z,13.63
2019-06-27T11:10:47.405Z,6.03
2019-06-27T11:13:16.598Z,13.20
2019-06-27T11:15:49.183Z,16.70
2019-06-27T11:18:16.552Z,8.13
2019-06-27T11:20:45.779Z,13.90
2019-06-27T11:23:15.185Z,19.30
2019-06-27T11:25:44.436Z,21.03
2019-06-27T11:28:13.738Z,15.67
2019-06-27T11:30:43.264Z,15.87
2019-06-27T11:33:12.510Z,6.80
2019-06-27T11:35:41.709Z,8.77
2019-06-27T11:38:11.278Z,22.97
2019-06-27T11:40:40.340Z,5.20
2019-06-27T11:43:09.460Z,9.43
2019-06-27T11:45:38.578Z,5.97
2019-06-27T11:48:07.679Z,7.47
2019-06-27T11:50:36.709Z,9.63
2019-06-27T11:53:06.009Z,6.93
2019-06-27T11:55:35.118Z,8.33
2019-06-27T11:58:04.365Z,8.13
2019-06-27T12:00:33.474Z,14.70
2019-06-27T12:03:02.617Z,8.63
2019-06-27T12:05:31.750Z,20.30
2019-06-27T12:08:00.821Z,4.70
2019-06-27T12:10:30.003Z,10.20
2019-06-27T12:12:59.103Z,9.10
2019-06-27T12:15:28.420Z,6.40
2019-06-27T12:17:57.531Z,6.03
2019-06-27T12:20:26.619Z,6.67
2019-06-27T12:22:55.814Z,4.03
2019-06-27T12:25:25.005Z,12.77
2019-06-27T12:27:54.231Z,7.83
2019-06-27T12:30:23.324Z,9.07
2019-06-27T12:32:53.136Z,14.50
2019-06-27T12:35:22.848Z,4.17
2019-06-27T12:37:52.452Z,7.13
2019-06-27T12:40:22.541Z,11.33
2019-06-27T12:42:51.923Z,8.73
2019-06-27T12:45:22.730Z,6.50
2019-06-27T12:47:51.858Z,14.73
2019-06-27T12:50:20.964Z,3.20
2019-06-27T12:52:50.008Z,9.30
2019-06-27T12:55:19.203Z,12.10
2019-06-27T12:57:48.372Z,8.53
2019-06-27T13:00:18.083Z,11.40
2019-06-27T13:02:47.168Z,8.37
2019-06-27T13:05:16.229Z,6.10
2019-06-27T13:07:45.589Z,14.30
2019-06-27T13:10:14.695Z,5.03
2019-06-27T13:12:44.172Z,13.03
2019-06-27T13:15:13.754Z,11.00
2019-06-27T13:17:43.290Z,17.40
2019-06-27T13:20:13.479Z,7.90
2019-06-27T13:22:42.685Z,11.43
2019-06-27T13:25:11.874Z,4.53
2019-06-27T13:27:41.110Z,7.20
2019-06-27T13:30:10.648Z,8.03
2019-06-27T13:32:39.963Z,8.33
2019-06-27T13:35:09.250Z,4.80
2019-06-27T13:37:38.433Z,9.10
2019-06-27T13:40:08.417Z,8.87
2019-06-27T13:42:38.614Z,11.40
2019-06-27T13:45:08.260Z,6.13
2019-06-27T13:47:37.372Z,5.40
2019-06-27T13:50:07.262Z,7.57
2019-06-27T13:52:36.605Z,10.00
2019-06-27T13:55:05.989Z,5.80
2019-06-27T13:57:35.718Z,3.97
2019-06-27T14:00:06.275Z,7.40
2019-06-27T14:02:35.404Z,7.27
2019-06-27T14:05:04.883Z,10.43
2019-06-27T14:07:34.323Z,9.40
2019-06-27T14:10:03.660Z,5.37
2019-06-27T14:12:33.020Z,6.17
2019-06-27T14:15:02.951Z,6.50
2019-06-27T14:17:32.384Z,5.47
2019-06-27T14:20:02.010Z,7.67
2019-06-27T14:22:34.071Z,13.50
2019-06-27T14:25:03.513Z,8.00
2019-06-27T14:27:32.801Z,5.83
2019-06-27T14:30:01.900Z,10.40
2019-06-27T14:32:32.858Z,6.70
2019-06-27T14:35:14.535Z,7.37
2019-06-27T14:37:35.615Z,8.43
2019-06-27T14:40:05.359Z,5.33
2019-06-27T14:42:35.015Z,8.10
2019-06-27T14:45:04.364Z,7.20
2019-06-27T14:47:33.580Z,10.93
2019-06-27T14:50:02.956Z,12.67
2019-06-27T14:52:34.766Z,15.10
2019-06-27T14:55:04.184Z,7.90
2019-06-27T14:57:33.249Z,6.20
2019-06-27T15:00:02.488Z,7.77
2019-06-27T15:02:31.795Z,12.47
2019-06-27T15:05:02.675Z,9.63
2019-06-27T15:07:38.545Z,5.70
2019-06-27T15:10:08.781Z,10.37
2019-06-27T15:12:56.493Z,8.40
2019-06-27T15:15:14.128Z,6.30
2019-06-27T15:17:44.245Z,12.00
2019-06-27T15:20:13.533Z,6.13
2019-06-27T15:22:44.520Z,19.10
2019-06-27T15:25:13.700Z,4.60
2019-06-27T15:27:42.977Z,6.03
2019-06-27T15:30:12.442Z,8.43
2019-06-27T15:32:41.830Z,3.13
2019-06-27T15:35:11.918Z,7.40
2019-06-27T15:37:40.960Z,8.93
2019-06-27T15:40:10.595Z,11.53
2019-06-27T18:40:33.550Z,5.93
2019-06-27T18:43:02.695Z,9.87
2019-06-27T18:45:31.847Z,9.53
2019-06-27T18:48:00.892Z,7.63
2019-06-27T18:50:29.999Z,7.03
2019-06-27T18:52:59.097Z,6.43
2019-06-27T18:55:28.243Z,7.53
2019-06-27T18:57:57.384Z,6.60
2019-06-27T19:00:26.422Z,3.80
2019-06-27T19:02:55.378Z,12.50
2019-06-27T19:05:24.609Z,13.73
2019-06-27T19:07:53.743Z,10.03
2019-06-27T19:10:23.044Z,15.87
2019-06-27T19:12:52.190Z,8.80
2019-06-27T19:15:21.421Z,8.57
2019-06-27T19:17:50.662Z,3.40
2019-06-27T19:20:34.274Z,8.23
2019-06-27T19:23:22.442Z,4.40
2019-06-27T19:25:52.815Z,7.50
2019-06-27T19:28:21.942Z,12.73
2019-06-27T19:30:51.071Z,8.93
2019-06-27T19:33:20.210Z,19.50
2019-06-27T19:35:49.344Z,7.93
2019-06-27T19:38:18.512Z,9.17
2019-06-27T19:40:47.539Z,3.17
2019-06-27T19:43:27.256Z,3.73
2019-06-27T19:45:47.582Z,8.23
2019-06-27T19:48:17.174Z,8.20
2019-06-27T19:50:46.277Z,7.43
2019-06-27T19:53:15.281Z,9.20
2019-06-27T19:55:44.639Z,7.77
2019-06-27T19:58:13.910Z,11.13
2019-06-27T20:00:43.440Z,12.60
2019-06-27T20:03:13.024Z,7.37
2019-06-27T20:05:42.471Z,6.47
2019-06-27T20:08:19.194Z,14.30
2019-06-27T20:10:42.979Z,25.30
2019-06-27T20:13:12.305Z,11.30
2019-06-27T20:15:41.518Z,12.23
2019-06-27T20:18:10.753Z,8.40
2019-06-27T20:20:40.162Z,9.50
2019-06-27T20:23:09.229Z,12.80
2019-06-27T20:25:38.450Z,6.40
2019-06-27T20:28:07.491Z,16.43
2019-06-27T20:30:36.546Z,12.20
2019-06-27T20:33:05.981Z,11.40
2019-06-27T20:35:35.233Z,12.03
2019-06-27T20:38:04.543Z,12.43
2019-06-27T20:40:33.691Z,8.13
2019-06-27T20:43:02.734Z,11.17
2019-06-27T20:45:31.852Z,6.60
2019-06-27T20:48:01.478Z,6.40
2019-06-27T20:50:30.532Z,5.23
2019-06-27T20:52:59.610Z,7.23
2019-06-27T20:55:28.708Z,14.73
2019-06-27T20:57:58.091Z,12.30
2019-06-27T21:00:27.115Z,6.00
2019-06-27T21:02:56.207Z,4.53
2019-06-27T21:05:25.335Z,3.60
2019-06-27T21:07:54.761Z,5.83
2019-06-27T21:10:23.839Z,5.90
2019-06-27T21:12:52.947Z,7.57
2019-06-27T21:15:23.559Z,13.00
2019-06-27T21:17:52.657Z,6.33
2019-06-27T21:20:22.506Z,4.70
2019-06-27T21:22:51.838Z,7.73
2019-06-27T21:25:21.206Z,7.23
2019-06-27T21:27:50.273Z,7.37
2019-06-27T21:30:19.561Z,12.37
2019-06-27T21:32:48.844Z,12.50
2019-06-27T21:35:18.077Z,3.93
2019-06-27T21:37:47.180Z,13.70
2019-06-27T21:40:16.443Z,9.43
2019-06-27T21:42:45.508Z,3.57
2019-06-27T21:45:15.012Z,8.63
2019-06-27T21:47:44.479Z,10.80
2019-06-27T21:50:13.763Z,9.97
2019-06-27T21:52:42.912Z,10.87
2019-06-27T21:55:12.062Z,14.27
2019-06-27T21:57:41.499Z,7.67
2019-06-27T22:00:10.824Z,3.27
2019-06-27T22:02:39.944Z,6.13
2019-06-27T22:05:09.323Z,11.43
2019-06-27T22:07:38.488Z,7.90
2019-06-27T22:10:08.379Z,8.90
2019-06-27T22:12:37.464Z,11.63
2019-06-27T22:15:07.019Z,8.20
2019-06-27T22:17:36.513Z,7.83
2019-06-27T22:20:15.020Z,9.30
2019-06-27T22:22:36.558Z,3.47
2019-06-27T22:25:06.006Z,15.93
2019-06-27T22:27:35.118Z,4.90
2019-06-27T22:30:04.688Z,10.93
2019-06-27T22:32:33.750Z,8.93
2019-06-27T22:35:02.770Z,10.17
2019-06-27T22:37:30.985Z,7.33
2019-06-27T22:40:17.811Z,7.00
2019-06-27T22:43:04.691Z,6.03
2019-06-27T22:45:51.757Z,3.83
2019-06-27T22:48:21.337Z,6.60
2019-06-27T22:51:07.869Z,6.30
2019-06-27T22:53:41.825Z,6.43
2019-06-27T22:56:10.965Z,11.03
2019-06-27T22:58:39.976Z,5.13
2019-06-27T23:01:09.072Z,2.90
2019-06-27T23:03:38.286Z,11.55
2019-06-27T23:06:07.385Z,8.87
2019-06-27T23:08:36.674Z,4.07
2019-06-27T23:11:05.740Z,10.17
2019-06-27T23:13:34.688Z,6.60
2019-06-27T23:16:03.850Z,8.13
2019-06-27T23:18:33.174Z,12.70
2019-06-27T23:21:02.195Z,6.40
2019-06-27T23:23:31.610Z,5.53
2019-06-27T23:26:00.691Z,15.87
2019-06-27T23:28:29.778Z,13.93
2019-06-27T23:30:59.085Z,6.17
2019-06-27T23:33:28.117Z,4.10
2019-06-27T23:35:57.170Z,5.03
2019-06-27T23:38:26.440Z,3.83
2019-06-27T23:40:55.542Z,3.50
2019-06-27T23:43:24.638Z,8.07
2019-06-27T23:45:53.899Z,5.53
2019-06-27T23:48:22.964Z,3.27
2019-06-27T23:50:52.029Z,10.50
2019-06-27T23:53:21.356Z,3.10
2019-06-27T23:55:50.501Z,9.20
2019-06-27T23:58:19.432Z,6.80
